David Borges

Olheiro-Chefe - Braga
20 Jan 2028
Quinta-feira
Processo

Personalidade

Adaptabilidade (14) Ambição (12) Controvérsia (15) Lealdade (6) Pressão (9) Profissionalismo (19) Espírito Esportivo (2) Temperamento (11)

Perfil

Estilo de Treinamento Democrático
Licença Continental B
Determinação 6
Gestão de Pessoas 5
Motivação 7
Disciplina 15
Satisfação no Trabalho
100%
Fadiga
0%
Função Olheiro-Chefe
Salário 40.1K p/s
Contrato 14.03.2029

Desempenho

Comportamento Bom
Eficácia do Treinamento
48%
Desenvolvimento do Jogador
70%
Prevenção de Lesões
50%
Implementação Tática
60%

Eventos Recentes

Participou de uma reunião de recrutamento agora
Participou de uma reunião de recrutamento agora
Recomendou um alvo de transferência agora
Recomendou um alvo de transferência agora
Recomendou um alvo de transferência agora
Participou de uma reunião de recrutamento agora
Recomendou um alvo de transferência agora
Apresentou um dossiê à direção agora

Monitorando agora

163
Jogador Clube Status Habilidade Confiança Observado Última observação Último voto
Marc Bernal Real Sociedad Ativo 144 / 155 40% 4 17.01.2028 -
Josh Nichols Tranmere Rovers Ativo 123 / 127 40% 3 17.01.2028 -
Jaydee Canvot AJ Auxerre Ativo 136 / 141 40% 1 17.01.2028 -
Eduardo Felicíssimo Sporting CP Ativo 120 / 123 67% 12 11.01.2028 Aprovar
Luis Otávio Colorado Rapids Ativo 111 / 123 40% 8 11.01.2028 -
Héctor Fort Real Sociedad Ativo 137 / 148 40% 2 11.01.2028 -
Gonçalo Moreira Benfica Perdido 119 / 122 76% 1 10.01.2028 -
Gianluca Prestianni Benfica Ativo 137 / 139 40% 2 09.01.2028 -
Jan Virgili Club Brugge Ativo 137 / 138 40% 3 09.01.2028 -
Cristian Florez Cortulua Ativo 97 / 111 40% 3 09.01.2028 -
Victor Froholdt Porto Ativo 159 / 156 40% 8 08.01.2028 -
Jayden Danns Wigan Athletic Ativo 138 / 141 40% 2 08.01.2028 -
Mateus Mide Porto Ativo 113 / 110 40% 1 08.01.2028 -
Luca Williams-Barnett Tranmere Rovers Ativo 119 / 129 40% 1 07.01.2028 -
Daniel Banjaqui Benfica Ativo 125 / 133 40% 10 02.01.2028 -
Christos Mouzakitis Hull City Ativo 134 / 144 40% 6 01.01.2028 -
Martim Cunha Porto Ativo 104 / 108 40% 2 01.01.2028 -
Mao Hosoya Everton Ativo 134 / 135 90% 1 01.01.2028 Aprovar
Gonçalo Inácio Sporting CP Perdido 147 / 149 67% 1 01.01.2028 -
Kauã Moraes Cruzeiro Ativo 127 / 135 40% 11 29.12.2027 -
Ronan Kpakio Cardiff City Ativo 119 / 127 40% 6 29.12.2027 -
Tiago Freitas Benfica Ativo 115 / 129 40% 3 26.12.2027 -
Ayden Heaven Luton Town Ativo 143 / 151 40% 8 26.12.2027 -
Myles Lewis-Skelly Birmingham Ativo 153 / 160 40% 7 25.12.2027 -
Bahia Criciuma Ativo 112 / 120 40% 4 24.12.2027 -
Archie Gray Derby County Ativo 150 / 151 40% 9 24.12.2027 -
Hervin Goyes Deportivo Pasto Ativo 104 / 114 40% 10 22.12.2027 -
Nicolas Sport Recife Ativo 98 / 109 40% 7 19.12.2027 -
Gonçalo Oliveira Benfica Ativo 110 / 118 40% 1 17.12.2027 -
David Valencia Alianza Petrolera Negociando 119 / 131 40% 10 15.12.2027 -
Caleb Yirenkyi Coventry City Ativo 142 / 145 40% 9 13.12.2027 -
Sebastián Ramírez Jaguares Ativo 111 / 120 40% 9 08.12.2027 -
Dmitry Pestryakov Dinamo Moscow Ativo 122 / 121 40% 3 06.12.2027 -
Martim Fernandes Porto Ativo 146 / 145 40% 3 03.12.2027 -
Miguel Figueiredo Cesena Ativo 118 / 127 40% 6 30.11.2027 -
João Simões Sporting CP Ativo 140 / 148 40% 6 29.11.2027 -
Alejandro Almaraz Nueva Chicago Ativo 102 / 116 40% 6 25.11.2027 -
Matteo Pérez Vinlöf Dinamo Zagreb Ativo 135 / 130 40% 1 22.11.2027 -
Giovanni Leoni Bradford City Ativo 140 / 143 40% 3 02.11.2027 -
Paulo Roberto São Paulo Ativo 110 / 116 40% 4 01.11.2027 -
Josh King Chelsea Ativo 145 / 149 40% 3 01.11.2027 -
Toni Tamarit Alverca Ativo 127 / 122 40% 1 31.10.2027 -
Igor Felisberto Sport Recife Ativo 106 / 106 40% 2 30.10.2027 -
Tobias Moi Bodo/Glimt Ativo 113 / 112 40% 2 29.10.2027 -
Mauro Carrizo Atlético Tucumán Ativo 99 / 112 40% 5 28.10.2027 -
Mads Bomholt Stabaek Ativo 117 / 113 40% 2 26.10.2027 -
Celías Ingenthron Vélez Ativo 110 / 116 40% 1 25.10.2027 -
Julián Bazán Philadelphia Union Ativo 116 / 124 40% 3 23.10.2027 -
Jens Hjertø-Dahl Hull City Ativo 129 / 128 40% 1 06.10.2027 -
Souza Tottenham Ativo 125 / 130 40% 1 06.10.2027 -
Johan Manzambi Newcastle United Ativo 149 / 154 40% 5 01.10.2027 -
Pablo Lúcio Bristol City Ativo 112 / 121 40% 2 01.10.2027 -
Teo Rodríguez Pagano River Plate Ativo 113 / 118 40% 2 01.10.2027 -
Felipe Obradovich Ferro Carril Oeste Ativo 109 / 109 40% 1 28.09.2027 -
Mbekezeli Mbokazi Chicago Fire Ativo 132 / 128 40% 1 12.09.2027 -
Mikkel Hope Haugesund Ativo 93 / 98 40% 2 10.09.2027 -
Júlio Fidelis Fluminense Ativo 106 / 102 40% 1 10.09.2027 -
Kauã Pascini Atlético Mineiro Ativo 94 / 109 40% 1 30.08.2027 -
William Gomes Porto Ativo 154 / 147 40% 8 09.08.2027 -
Shea Lacey Wolverhampton Ativo 124 / 130 40% 4 09.08.2027 -
Jayden Addai Como Ativo 139 / 138 40% 3 09.08.2027 -
Matheus Gonçalves Al-Ahli Ativo 132 / 135 40% 2 01.08.2027 -
Mfundo Vilakazi Kaizer Chiefs Ativo 116 / 125 40% 1 01.08.2027 -
Lander Astiazarán Real Sociedad Ativo 108 / 116 40% 1 01.08.2027 -
Kamarni Ryan Burton Albion Ativo 101 / 110 40% 3 31.07.2027 -
Oscar Schwartau Norwich City Ativo 126 / 125 40% 2 31.07.2027 -
Diogo Guzmán Montevideo City Torque Ativo 120 / 127 40% 1 30.07.2027 -
Jesús Rodríguez Como Ativo 144 / 152 40% 1 29.07.2027 -
Othmane Maamma Watford Ativo 133 / 136 40% 4 28.07.2027 -
Riley Owen Trento Ativo 102 / 109 40% 2 26.07.2027 -
Assane Diao Lazio Ativo 153 / 146 40% 2 20.07.2027 -
Daniel Kelly Oxford United Ativo 112 / 114 40% 2 21.06.2027 -
Bernardo Lima Porto Ativo 98 / 103 40% 1 21.06.2027 -
Dylan Lawlor Cardiff City Ativo 119 / 126 40% 2 06.06.2027 -
Davide Bartesaghi AC Milan Ativo 130 / 134 40% 1 05.06.2027 -
Ernie Weaver AFC Wimbledon Ativo 107 / 123 40% 1 04.06.2027 -
Kazunari Kita Real Sociedad Ativo 103 / 104 40% 1 04.06.2027 -
Sascha Britschgi Padova Ativo 120 / 126 40% 3 03.06.2027 -
Mohammed Bouldini Académico de Viseu Ativo 116 / 126 76% 1 02.06.2027 Aprovar
Franculino Crystal Palace Ativo 136 / 140 67% 1 01.06.2027 Aprovar
Gonçalo Ramos AC Milan Ativo 158 / 150 40% 2 31.05.2027 -
Borja Sainz Fiorentina Ativo 148 / 150 40% 13 30.05.2027 -
Marco Asensio Fenerbahce Ativo 162 / 163 40% 11 30.05.2027 -
Kwadwo Baah Watford Ativo 134 / 130 40% 2 30.05.2027 -
Callum Hudson-Odoi Nottingham Forest Ativo 149 / 152 40% 7 28.05.2027 -
Riley McGree Middlesbrough Ativo 131 / 130 40% 4 28.05.2027 -
Welington Southampton Ativo 133 / 130 40% 1 28.05.2027 -
Nicolas Jackson Aston Villa Ativo 153 / 149 40% 9 26.05.2027 -
André Silva Tondela Ativo 129 / 124 40% 9 26.05.2027 -
Jacob Ramsey Newcastle United Ativo 151 / 147 40% 5 25.05.2027 -
Curtis Jones Inter Ativo 159 / 160 40% 5 25.05.2027 -
Hany Mukhtar Spezia Ativo 137 / 134 40% 3 24.05.2027 -
Harry Wilson Leeds United Ativo 149 / 148 40% 1 24.05.2027 -
Dango Ouattara Brentford Ativo 144 / 150 40% 11 23.05.2027 -
Finn Azaz Southampton Ativo 126 / 130 40% 5 23.05.2027 -
Mikkel Damsgaard Brentford Ativo 146 / 147 40% 3 22.05.2027 -
Kiernan Dewsbury-Hall Everton Ativo 149 / 148 40% 9 21.05.2027 -
Geny Sporting CP Ativo 142 / 144 40% 9 21.05.2027 Observar
Rodrigo Zalazar Sporting CP Ativo 159 / 151 40% 11 20.05.2027 -
Mats Wieffer Brighton Ativo 150 / 146 40% 1 20.05.2027 -
Carlos Vicente Birmingham Ativo 148 / 137 40% 10 18.05.2027 -
Kevin Fulham Ativo 153 / 147 40% 3 18.05.2027 -
Matías Gómez Granada Ativo 116 / 118 40% 1 10.05.2027 -
Tom Fellows Southampton Ativo 136 / 129 40% 7 04.05.2027 -
Giacomo Raspadori Atalanta Ativo 143 / 146 40% 8 02.05.2027 -
Fredrik Aursnes Benfica Ativo 144 / 145 40% 5 28.04.2027 -
Jack Rudoni Coventry City Ativo 135 / 137 40% 1 22.04.2027 -
Ritsu Doan Benfica Ativo 146 / 147 40% 2 19.04.2027 -
Diego Lainez Tigres Ativo 141 / 139 40% 9 16.04.2027 -
Léo Scienza Southampton Ativo 145 / 142 40% 5 11.04.2027 -
Jesús Ricardo Angulo Toluca Ativo 127 / 121 40% 4 08.04.2027 -
Alejandro Zendejas Club America Ativo 136 / 142 40% 3 06.04.2027 -
Orbelín Pineda Monterrey Ativo 147 / 146 40% 2 03.04.2027 -
Francisco Conceição Juventus Ativo 159 / 158 40% 3 29.03.2027 -
Luís Esteves Atlas Ativo 138 / 136 40% 3 26.03.2027 -
Dodi Lukébakio Benfica Ativo 141 / 148 40% 5 22.03.2027 -
Pepê Porto Ativo 153 / 151 40% 2 17.03.2027 -
Agustín Palavecino Cruz Azul Ativo 143 / 135 40% 2 15.03.2027 -
Víctor Dávila Club America Ativo 129 / 119 40% 1 15.03.2027 -
Matt O'Riley Brighton Ativo 147 / 149 40% 1 14.03.2027 -
Félix Lemaréchal Club Brugge Ativo 141 / 139 40% 2 02.03.2027 -
Marcelo Allende Mamelodi Sundowns Ativo 132 / 127 40% 1 24.02.2027 -
Brian Rodríguez Club America Ativo 126 / 118 40% 1 12.02.2027 -
Ozziel Herrera Tigres Ativo 134 / 120 40% 7 04.02.2027 -
Marvin Keller Bayer Leverkusen Negociando 136 / 137 67% 1 01.01.2027 -
Stanislav Agkatsev Sunderland Negociando 132 / 133 66% 1 01.01.2027 -
Pau Víctor AVS Perdido 147 / 136 40% 4 31.12.2026 -
Jean-Philippe Mateta Crystal Palace Ativo 155 / 147 40% 1 31.12.2026 -
Bamba Dieng Crvena Zvezda Ativo 127 / 116 40% 1 30.12.2026 -
Jalen Blesa Rio Ave Ativo 118 / 119 40% 5 29.12.2026 -
Morgan Whittaker Middlesbrough Ativo 134 / 135 40% 1 27.12.2026 -
Themba Ngcobo SuperSport United Ativo 124 / 117 40% 6 26.12.2026 -
Thiago Brentford Ativo 140 / 144 40% 7 20.12.2026 -
Figueiredo Alverca Ativo 134 / 133 40% 6 18.12.2026 -
Georginio Rutter Brighton Ativo 146 / 149 40% 6 12.12.2026 -
Vinícius Lopes Santa Clara Ativo 122 / 112 40% 4 12.12.2026 -
Gustavo Silva Vitoria Guimaraes Ativo 122 / 123 40% 5 08.12.2026 Observar
Luis Vázquez Birmingham Ativo 130 / 132 40% 3 08.12.2026 -
Zé Leite Leixões Ativo 124 / 123 40% 1 05.12.2026 -
Nicolò Tresoldi Club Brugge Ativo 126 / 137 40% 9 04.12.2026 -
Yousef Salech Cardiff City Ativo 122 / 118 40% 4 03.12.2026 -
Wilson Isidor Sunderland Ativo 131 / 133 40% 1 27.11.2026 -
Mandla Mahlangu Ajax Cape Town Ativo 104 / 110 40% 2 26.11.2026 -
Gonzalo Fulham Ativo 149 / 145 40% 2 19.11.2026 -
Alfonso Trezza Arouca Ativo 128 / 118 40% 1 17.11.2026 -
Alexis Cuello San Lorenzo Ativo 117 / 118 40% 2 01.11.2026 -
Gabriel Veron Porto Ativo 133 / 133 40% 3 30.10.2026 -
Agustín Módica Gimnasia y Esgrima Ativo 120 / 124 40% 1 28.10.2026 -
Rafael Navarro St. Louis CITY SC Ativo 117 / 131 40% 9 25.10.2026 -
Manuel Ospina Cortulua Ativo 132 / 134 40% 1 21.10.2026 -
Tommy Conway Middlesbrough Ativo 130 / 127 40% 1 19.10.2026 -
Kévin Denkey FC Cincinnati Ativo 138 / 133 40% 1 17.10.2026 -
Adnan Courtois KV Oostende Ativo 134 / 130 40% 3 12.10.2026 -
Wessam Abou Ali Columbus Crew Ativo 123 / 136 40% 1 09.10.2026 -
Bénie Traoré New York City Ativo 130 / 118 40% 2 29.09.2026 -
Yanis Begraoui Estoril Praia Ativo 138 / 141 40% 1 26.09.2026 -
Leonardo Campana New England Revolution Ativo 119 / 130 40% 1 20.09.2026 -
Alexander Díaz Deportivo Riestra Ativo 119 / 118 40% 2 19.09.2026 -
Gabriel Martinelli Brighton Ativo 166 / 167 40% 1 18.09.2026 -
Victor Olatunji Real Salt Lake Ativo 112 / 118 40% 1 15.09.2026 -
Cody Gakpo Liverpool Ativo 152 / 160 40% 1 14.09.2026 -
Agustín Paz Progreso Ativo 123 / 122 40% 1 07.09.2026 -
Karim Adeyemi Barcelona Ativo 156 / 158 40% 1 01.08.2026 -